sensor_id;sensor_type;location;lat;lon;timestamp;pressure;altitude;pressure_sealevel;temperature;humidity
6136;BME280;24008;42.664;23.372;2023-04-07T00:01:51;94410.50;;;1.69;54.51
6136;BME280;24008;42.664;23.372;2023-04-07T00:04:18;94458.56;;;2.05;54.86
6136;BME280;24008;42.664;23.372;2023-04-07T00:06:45;94464.63;;;2.03;55.25
6136;BME280;24008;42.664;23.372;2023-04-07T00:09:12;94434.72;;;1.84;54.59
6136;BME280;24008;42.664;23.372;2023-04-07T00:11:38;94373.53;;;1.42;54.95
6136;BME280;24008;42.664;23.372;2023-04-07T00:14:06;94399.19;;;1.62;54.98
6136;BME280;24008;42.664;23.372;2023-04-07T00:16:35;94473.09;;;2.02;55.00
6136;BME280;24008;42.664;23.372;2023-04-07T00:19:01;94413.56;;;1.60;53.96
6136;BME280;24008;42.664;23.372;2023-04-07T00:21:28;94386.44;;;1.51;54.29
6136;BME280;24008;42.664;23.372;2023-04-07T00:23:55;94459.78;;;2.00;54.65
6136;BME280;24008;42.664;23.372;2023-04-07T00:26:22;94458.88;;;2.01;54.50
6136;BME280;24008;42.664;23.372;2023-04-07T00:28:49;94385.72;;;1.49;54.08
6136;BME280;24008;42.664;23.372;2023-04-07T00:31:16;94437.47;;;1.81;53.92
6136;BME280;24008;42.664;23.372;2023-04-07T00:33:44;94397.56;;;1.61;53.87
6136;BME280;24008;42.664;23.372;2023-04-07T00:36:12;94393.50;;;1.58;53.22
6136;BME280;24008;42.664;23.372;2023-04-07T00:38:39;94466.63;;;1.98;53.44
6136;BME280;24008;42.664;23.372;2023-04-07T00:41:06;94463.91;;;2.01;53.62
6136;BME280;24008;42.664;23.372;2023-04-07T00:43:33;94387.88;;;1.55;54.53
6136;BME280;24008;42.664;23.372;2023-04-07T00:46:00;94474.44;;;1.80;58.63
6136;BME280;24008;42.664;23.372;2023-04-07T00:48:27;94467.28;;;1.60;60.95
6136;BME280;24008;42.664;23.372;2023-04-07T00:50:56;94092.47;;;-1.02;62.64
6136;BME280;24008;42.664;23.372;2023-04-07T00:53:23;94267.00;;;-0.10;64.58
6136;BME280;24008;42.664;23.372;2023-04-07T00:55:50;94473.03;;;1.07;65.04
6136;BME280;24008;42.664;23.372;2023-04-07T00:58:17;94015.56;;;-1.90;66.37
6136;BME280;24008;42.664;23.372;2023-04-07T01:00:48;93781.81;;;-3.52;67.34
6136;BME280;24008;42.664;23.372;2023-04-07T01:03:18;94178.19;;;-1.10;67.93
6136;BME280;24008;42.664;23.372;2023-04-07T01:05:52;94167.81;;;-1.19;68.35
6136;BME280;24008;42.664;23.372;2023-04-07T01:08:27;94408.94;;;-0.03;69.14
6136;BME280;24008;42.664;23.372;2023-04-07T01:11:02;94278.03;;;-0.56;69.98
6136;BME280;24008;42.664;23.372;2023-04-07T01:13:35;94392.97;;;-0.02;70.21
6136;BME280;24008;42.664;23.372;2023-04-07T01:16:10;94452.22;;;0.47;70.97
6136;BME280;24008;42.664;23.372;2023-04-07T01:18:38;94459.84;;;0.45;71.04
6136;BME280;24008;42.664;23.372;2023-04-07T01:21:10;94455.09;;;0.55;71.43
6136;BME280;24008;42.664;23.372;2023-04-07T01:24:03;94280.72;;;-0.59;71.03
6136;BME280;24008;42.664;23.372;2023-04-07T01:26:32;94215.94;;;-0.97;70.85
6136;BME280;24008;42.664;23.372;2023-04-07T01:29:28;94228.56;;;-0.84;70.45
6136;BME280;24008;42.664;23.372;2023-04-07T01:31:59;94247.19;;;-0.73;70.78
6136;BME280;24008;42.664;23.372;2023-04-07T01:34:28;94450.00;;;0.56;70.38
6136;BME280;24008;42.664;23.372;2023-04-07T01:36:56;94280.75;;;-0.45;70.73
6136;BME280;24008;42.664;23.372;2023-04-07T01:39:26;94440.03;;;0.55;71.14
6136;BME280;24008;42.664;23.372;2023-04-07T01:41:54;94235.53;;;-0.74;71.22
6136;BME280;24008;42.664;23.372;2023-04-07T01:44:21;94440.47;;;0.61;71.17
6136;BME280;24008;42.664;23.372;2023-04-07T01:46:51;94384.66;;;0.26;70.92
6136;BME280;24008;42.664;23.372;2023-04-07T01:49:18;94257.97;;;-0.56;71.40
6136;BME280;24008;42.664;23.372;2023-04-07T01:51:45;94396.19;;;0.30;72.08
6136;BME280;24008;42.664;23.372;2023-04-07T01:54:14;94395.25;;;0.17;72.71
6136;BME280;24008;42.664;23.372;2023-04-07T01:56:42;94436.88;;;0.51;73.04
6136;BME280;24008;42.664;23.372;2023-04-07T01:59:08;94441.47;;;0.59;72.63
6136;BME280;24008;42.664;23.372;2023-04-07T02:01:36;94403.34;;;0.36;71.80
6136;BME280;24008;42.664;23.372;2023-04-07T02:04:10;94444.81;;;0.59;72.13
6136;BME280;24008;42.664;23.372;2023-04-07T02:06:41;94215.69;;;-0.78;71.88
6136;BME280;24008;42.664;23.372;2023-04-07T02:09:10;94430.25;;;0.64;71.92
6136;BME280;24008;42.664;23.372;2023-04-07T02:11:39;94448.81;;;0.62;71.94
6136;BME280;24008;42.664;23.372;2023-04-07T02:14:08;94435.25;;;0.64;72.27
6136;BME280;24008;42.664;23.372;2023-04-07T02:16:36;94325.03;;;-0.14;72.31
6136;BME280;24008;42.664;23.372;2023-04-07T02:19:05;94438.88;;;0.60;72.64
6136;BME280;24008;42.664;23.372;2023-04-07T02:21:33;94427.00;;;0.62;72.78
6136;BME280;24008;42.664;23.372;2023-04-07T02:24:00;94343.56;;;0.13;72.14
6136;BME280;24008;42.664;23.372;2023-04-07T02:26:32;94354.25;;;0.17;72.33
6136;BME280;24008;42.664;23.372;2023-04-07T02:28:59;94273.09;;;-0.28;72.03
6136;BME280;24008;42.664;23.372;2023-04-07T02:31:26;94280.66;;;-0.14;71.99
6136;BME280;24008;42.664;23.372;2023-04-07T02:33:53;94429.78;;;0.86;70.61
6136;BME280;24008;42.664;23.372;2023-04-07T02:36:21;94441.94;;;0.94;70.27
6136;BME280;24008;42.664;23.372;2023-04-07T02:38:48;94235.78;;;-0.20;70.18
6136;BME280;24008;42.664;23.372;2023-04-07T02:41:14;94428.09;;;1.01;70.17
6136;BME280;24008;42.664;23.372;2023-04-07T02:43:41;94427.72;;;1.07;70.11
6136;BME280;24008;42.664;23.372;2023-04-07T02:46:08;94439.59;;;1.05;70.17
6136;BME280;24008;42.664;23.372;2023-04-07T02:48:35;94399.81;;;0.83;70.02
6136;BME280;24008;42.664;23.372;2023-04-07T02:51:01;94205.44;;;-0.45;69.66
6136;BME280;24008;42.664;23.372;2023-04-07T02:53:29;94390.56;;;0.69;70.32
6136;BME280;24008;42.664;23.372;2023-04-07T02:55:57;94439.03;;;1.14;70.12
6136;BME280;24008;42.664;23.372;2023-04-07T02:58:24;94356.41;;;0.51;70.17
6136;BME280;24008;42.664;23.372;2023-04-07T03:00:51;94372.47;;;0.63;70.64
6136;BME280;24008;42.664;23.372;2023-04-07T03:03:17;94401.31;;;0.43;70.40
6136;BME280;24008;42.664;23.372;2023-04-07T03:05:44;94383.19;;;0.66;70.17
6136;BME280;24008;42.664;23.372;2023-04-07T03:08:11;94454.13;;;1.00;69.89
6136;BME280;24008;42.664;23.372;2023-04-07T03:10:39;94326.78;;;0.14;69.86
6136;BME280;24008;42.664;23.372;2023-04-07T03:13:06;94447.13;;;1.05;69.90
6136;BME280;24008;42.664;23.372;2023-04-07T03:15:33;94299.03;;;0.15;69.89
6136;BME280;24008;42.664;23.372;2023-04-07T03:18:00;94442.44;;;1.13;69.42
6136;BME280;24008;42.664;23.372;2023-04-07T03:20:27;94405.09;;;0.93;69.67
6136;BME280;24008;42.664;23.372;2023-04-07T03:22:54;94445.13;;;1.24;69.70
6136;BME280;24008;42.664;23.372;2023-04-07T03:25:21;94444.88;;;1.29;69.56
6136;BME280;24008;42.664;23.372;2023-04-07T03:27:49;94436.31;;;1.31;69.60
6136;BME280;24008;42.664;23.372;2023-04-07T03:30:16;94376.13;;;1.00;69.87
6136;BME280;24008;42.664;23.372;2023-04-07T03:32:43;94272.94;;;0.18;69.05
6136;BME280;24008;42.664;23.372;2023-04-07T03:35:10;94437.56;;;1.38;69.10
6136;BME280;24008;42.664;23.372;2023-04-07T03:37:37;94332.31;;;0.76;68.85
6136;BME280;24008;42.664;23.372;2023-04-07T03:40:05;94430.19;;;1.35;68.67
6136;BME280;24008;42.664;23.372;2023-04-07T03:42:31;94348.69;;;0.83;68.96
6136;BME280;24008;42.664;23.372;2023-04-07T03:45:00;94380.09;;;0.90;69.17
6136;BME280;24008;42.664;23.372;2023-04-07T03:47:26;94292.06;;;0.34;66.70
6136;BME280;24008;42.664;23.372;2023-04-07T03:49:53;94305.16;;;0.40;65.08
6136;BME280;24008;42.664;23.372;2023-04-07T03:52:20;94439.66;;;1.32;64.24
6136;BME280;24008;42.664;23.372;2023-04-07T03:54:47;94266.84;;;0.36;62.12
6136;BME280;24008;42.664;23.372;2023-04-07T03:57:14;94444.56;;;1.48;62.14
6136;BME280;24008;42.664;23.372;2023-04-07T03:59:40;94444.91;;;1.56;62.49
6136;BME280;24008;42.664;23.372;2023-04-07T04:02:08;94445.81;;;1.55;64.04
6136;BME280;24008;42.664;23.372;2023-04-07T04:04:36;94394.13;;;1.08;66.15
6136;BME280;24008;42.664;23.372;2023-04-07T04:07:03;94450.56;;;1.18;68.02
6136;BME280;24008;42.664;23.372;2023-04-07T04:09:30;94451.38;;;1.04;69.21
6136;BME280;24008;42.664;23.372;2023-04-07T04:11:57;93924.81;;;-2.39;69.87
6136;BME280;24008;42.664;23.372;2023-04-07T04:14:25;94253.31;;;-0.48;70.37
6136;BME280;24008;42.664;23.372;2023-04-07T04:16:52;94091.91;;;-1.51;70.56
6136;BME280;24008;42.664;23.372;2023-04-07T04:19:20;94284.47;;;-0.37;71.04
6136;BME280;24008;42.664;23.372;2023-04-07T04:21:47;94157.63;;;-1.16;70.86
6136;BME280;24008;42.664;23.372;2023-04-07T04:24:14;94464.13;;;0.87;70.40
6136;BME280;24008;42.664;23.372;2023-04-07T04:26:41;94219.34;;;-0.84;70.11
6136;BME280;24008;42.664;23.372;2023-04-07T04:29:08;93969.59;;;-2.19;68.70
6136;BME280;24008;42.664;23.372;2023-04-07T04:31:35;94469.59;;;0.94;69.96
6136;BME280;24008;42.664;23.372;2023-04-07T04:34:01;94471.84;;;0.98;69.98
6136;BME280;24008;42.664;23.372;2023-04-07T04:36:30;94479.69;;;1.08;69.64
6136;BME280;24008;42.664;23.372;2023-04-07T04:38:57;94479.56;;;1.09;68.97
6136;BME280;24008;42.664;23.372;2023-04-07T04:41:23;94303.34;;;-0.15;68.50
6136;BME280;24008;42.664;23.372;2023-04-07T04:43:50;94499.69;;;1.09;68.78
6136;BME280;24008;42.664;23.372;2023-04-07T04:46:17;94374.50;;;0.14;69.05
6136;BME280;24008;42.664;23.372;2023-04-07T04:48:44;94378.88;;;0.54;68.29
6136;BME280;24008;42.664;23.372;2023-04-07T04:51:11;94487.56;;;1.30;67.37
6136;BME280;24008;42.664;23.372;2023-04-07T04:53:39;94486.84;;;1.42;67.19
6136;BME280;24008;42.664;23.372;2023-04-07T04:56:06;94346.19;;;0.68;66.83
6136;BME280;24008;42.664;23.372;2023-04-07T04:58:33;94490.09;;;1.71;66.05
6136;BME280;24008;42.664;23.372;2023-04-07T05:01:01;94487.50;;;1.73;65.43
6136;BME280;24008;42.664;23.372;2023-04-07T05:03:28;94492.44;;;1.74;65.00
6136;BME280;24008;42.664;23.372;2023-04-07T05:05:54;94301.56;;;0.58;64.82
6136;BME280;24008;42.664;23.372;2023-04-07T05:08:21;94500.19;;;1.98;65.14
6136;BME280;24008;42.664;23.372;2023-04-07T05:10:49;94498.72;;;2.08;64.19
6136;BME280;24008;42.664;23.372;2023-04-07T05:13:16;94462.41;;;1.98;63.71
6136;BME280;24008;42.664;23.372;2023-04-07T05:15:43;94502.00;;;2.23;63.61
6136;BME280;24008;42.664;23.372;2023-04-07T05:18:09;94460.06;;;1.95;62.93
6136;BME280;24008;42.664;23.372;2023-04-07T05:20:36;94504.88;;;2.44;63.04
6136;BME280;24008;42.664;23.372;2023-04-07T05:23:03;94504.91;;;2.57;62.42
6136;BME280;24008;42.664;23.372;2023-04-07T05:25:31;94434.63;;;2.25;62.64
6136;BME280;24008;42.664;23.372;2023-04-07T05:27:59;94456.75;;;2.47;62.30
6136;BME280;24008;42.664;23.372;2023-04-07T05:30:26;94508.25;;;3.46;62.23
6136;BME280;24008;42.664;23.372;2023-04-07T05:32:53;94505.03;;;4.98;59.60
6136;BME280;24008;42.664;23.372;2023-04-07T05:35:20;94461.63;;;6.24;54.04
6136;BME280;24008;42.664;23.372;2023-04-07T05:37:46;94505.22;;;7.63;47.61
6136;BME280;24008;42.664;23.372;2023-04-07T05:40:13;94502.69;;;8.22;47.05
6136;BME280;24008;42.664;23.372;2023-04-07T05:42:40;94504.22;;;9.02;45.57
6136;BME280;24008;42.664;23.372;2023-04-07T05:45:09;94500.22;;;9.36;43.34
6136;BME280;24008;42.664;23.372;2023-04-07T05:47:36;94282.22;;;7.54;43.30
6136;BME280;24008;42.664;23.372;2023-04-07T05:50:04;94508.66;;;8.42;43.84
6136;BME280;24008;42.664;23.372;2023-04-07T05:52:30;94505.53;;;8.19;44.27
6136;BME280;24008;42.664;23.372;2023-04-07T05:54:57;94503.63;;;8.21;44.66
6136;BME280;24008;42.664;23.372;2023-04-07T05:57:24;94507.50;;;8.06;44.60
6136;BME280;24008;42.664;23.372;2023-04-07T05:59:52;94225.28;;;5.87;45.36
6136;BME280;24008;42.664;23.372;2023-04-07T06:02:20;94301.16;;;5.47;46.46
6136;BME280;24008;42.664;23.372;2023-04-07T06:04:47;94515.88;;;6.43;48.06
6136;BME280;24008;42.664;23.372;2023-04-07T06:07:14;94507.88;;;6.27;48.73
6136;BME280;24008;42.664;23.372;2023-04-07T06:09:40;94511.66;;;6.33;48.77
6136;BME280;24008;42.664;23.372;2023-04-07T06:12:08;94451.38;;;6.88;47.63
6136;BME280;24008;42.664;23.372;2023-04-07T06:14:36;94382.88;;;7.56;44.68
6136;BME280;24008;42.664;23.372;2023-04-07T06:17:03;94417.47;;;8.26;43.33
6136;BME280;24008;42.664;23.372;2023-04-07T06:19:32;94451.16;;;8.69;41.57
6136;BME280;24008;42.664;23.372;2023-04-07T06:21:59;94491.97;;;9.15;41.02
6136;BME280;24008;42.664;23.372;2023-04-07T06:24:26;94473.19;;;9.53;40.86
6136;BME280;24008;42.664;23.372;2023-04-07T06:26:53;94505.13;;;10.22;39.25
6136;BME280;24008;42.664;23.372;2023-04-07T06:29:20;94491.25;;;10.42;38.65
6136;BME280;24008;42.664;23.372;2023-04-07T06:31:47;94496.19;;;10.97;37.87
6136;BME280;24008;42.664;23.372;2023-04-07T06:34:14;94413.72;;;10.95;37.18
6136;BME280;24008;42.664;23.372;2023-04-07T06:36:42;94451.03;;;11.31;36.84
6136;BME280;24008;42.664;23.372;2023-04-07T06:39:09;94496.00;;;11.68;35.96
6136;BME280;24008;42.664;23.372;2023-04-07T06:41:35;94386.94;;;10.81;36.86
6136;BME280;24008;42.664;23.372;2023-04-07T06:44:03;94492.59;;;11.93;36.35
6136;BME280;24008;42.664;23.372;2023-04-07T06:46:30;94486.56;;;12.10;35.51
6136;BME280;24008;42.664;23.372;2023-04-07T06:48:57;94341.88;;;11.14;35.04
6136;BME280;24008;42.664;23.372;2023-04-07T06:51:24;94425.31;;;11.07;35.79
6136;BME280;24008;42.664;23.372;2023-04-07T06:53:52;94396.56;;;10.61;36.39
6136;BME280;24008;42.664;23.372;2023-04-07T06:56:19;94501.22;;;10.89;37.42
6136;BME280;24008;42.664;23.372;2023-04-07T06:58:46;94265.06;;;8.88;38.21
6136;BME280;24008;42.664;23.372;2023-04-07T07:01:13;94377.06;;;9.26;38.56
6136;BME280;24008;42.664;23.372;2023-04-07T07:03:40;94504.19;;;10.58;38.35
6136;BME280;24008;42.664;23.372;2023-04-07T07:06:07;94510.19;;;11.36;37.08
6136;BME280;24008;42.664;23.372;2023-04-07T07:08:34;94502.34;;;12.32;36.01
6136;BME280;24008;42.664;23.372;2023-04-07T07:11:02;94190.97;;;10.98;34.57
6136;BME280;24008;42.664;23.372;2023-04-07T07:13:29;94495.16;;;13.41;33.17
6136;BME280;24008;42.664;23.372;2023-04-07T07:15:56;94500.13;;;12.93;33.12
6136;BME280;24008;42.664;23.372;2023-04-07T07:18:22;94433.31;;;12.30;34.51
6136;BME280;24008;42.664;23.372;2023-04-07T07:20:49;94511.88;;;12.80;34.84
6136;BME280;24008;42.664;23.372;2023-04-07T07:23:16;94513.63;;;13.36;34.02
6136;BME280;24008;42.664;23.372;2023-04-07T07:25:44;94465.53;;;13.22;32.88
6136;BME280;24008;42.664;23.372;2023-04-07T07:28:12;94508.91;;;14.11;32.32
6136;BME280;24008;42.664;23.372;2023-04-07T07:30:39;94524.53;;;14.40;31.50
6136;BME280;24008;42.664;23.372;2023-04-07T07:33:06;94522.59;;;14.03;34.15
6136;BME280;24008;42.664;23.372;2023-04-07T07:35:33;94520.13;;;14.18;31.81
6136;BME280;24008;42.664;23.372;2023-04-07T07:38:02;94526.06;;;13.72;32.12
6136;BME280;24008;42.664;23.372;2023-04-07T07:40:29;94507.88;;;13.26;30.64
6136;BME280;24008;42.664;23.372;2023-04-07T07:42:55;94400.91;;;12.13;30.89
6136;BME280;24008;42.664;23.372;2023-04-07T07:45:24;94492.44;;;12.53;32.84
6136;BME280;24008;42.664;23.372;2023-04-07T07:47:50;94528.13;;;12.46;32.77
6136;BME280;24008;42.664;23.372;2023-04-07T07:50:17;94528.72;;;12.16;33.06
6136;BME280;24008;42.664;23.372;2023-04-07T07:52:44;94524.03;;;12.11;32.45
6136;BME280;24008;42.664;23.372;2023-04-07T07:55:12;94527.66;;;11.67;32.23
6136;BME280;24008;42.664;23.372;2023-04-07T07:57:38;94531.34;;;11.98;32.54
6136;BME280;24008;42.664;23.372;2023-04-07T08:00:06;94447.81;;;11.71;32.85
6136;BME280;24008;42.664;23.372;2023-04-07T08:02:34;94494.91;;;12.20;32.76
6136;BME280;24008;42.664;23.372;2023-04-07T08:05:01;94530.59;;;12.96;31.98
6136;BME280;24008;42.664;23.372;2023-04-07T08:07:28;94520.50;;;12.95;32.00
6136;BME280;24008;42.664;23.372;2023-04-07T08:09:55;94526.94;;;13.31;31.49
6136;BME280;24008;42.664;23.372;2023-04-07T08:12:22;94531.63;;;13.28;30.54
6136;BME280;24008;42.664;23.372;2023-04-07T08:14:49;94526.13;;;12.98;30.86
6136;BME280;24008;42.664;23.372;2023-04-07T08:17:16;94513.50;;;12.14;31.47
6136;BME280;24008;42.664;23.372;2023-04-07T08:19:44;94535.78;;;11.88;32.60
6136;BME280;24008;42.664;23.372;2023-04-07T08:22:10;94548.16;;;11.93;32.35
6136;BME280;24008;42.664;23.372;2023-04-07T08:24:37;94416.56;;;11.51;32.05
6136;BME280;24008;42.664;23.372;2023-04-07T08:27:04;94466.22;;;12.09;32.11
6136;BME280;24008;42.664;23.372;2023-04-07T08:29:31;94493.97;;;12.21;31.60
6136;BME280;24008;42.664;23.372;2023-04-07T08:31:58;94494.03;;;12.62;31.57
6136;BME280;24008;42.664;23.372;2023-04-07T08:34:24;94527.09;;;13.14;31.11
6136;BME280;24008;42.664;23.372;2023-04-07T08:36:52;94536.03;;;13.66;30.22
6136;BME280;24008;42.664;23.372;2023-04-07T08:39:19;94472.94;;;14.11;30.28
6136;BME280;24008;42.664;23.372;2023-04-07T08:41:47;94537.22;;;14.42;28.38
6136;BME280;24008;42.664;23.372;2023-04-07T08:44:15;94403.25;;;13.36;29.66
6136;BME280;24008;42.664;23.372;2023-04-07T08:46:43;94529.75;;;13.69;29.95
6136;BME280;24008;42.664;23.372;2023-04-07T08:49:11;94535.13;;;13.27;29.97
6136;BME280;24008;42.664;23.372;2023-04-07T08:51:42;94517.16;;;12.86;30.88
6136;BME280;24008;42.664;23.372;2023-04-07T08:54:13;94418.03;;;12.12;31.81
6136;BME280;24008;42.664;23.372;2023-04-07T08:56:41;94512.16;;;13.09;31.90
6136;BME280;24008;42.664;23.372;2023-04-07T08:59:10;94524.69;;;13.12;31.15
6136;BME280;24008;42.664;23.372;2023-04-07T09:01:38;94470.28;;;12.27;30.98
6136;BME280;24008;42.664;23.372;2023-04-07T09:04:05;94526.75;;;12.84;31.31
6136;BME280;24008;42.664;23.372;2023-04-07T09:06:32;94333.41;;;11.64;30.73
6136;BME280;24008;42.664;23.372;2023-04-07T09:09:00;94519.69;;;12.54;30.82
6136;BME280;24008;42.664;23.372;2023-04-07T09:11:29;94493.00;;;12.14;31.53
6136;BME280;24008;42.664;23.372;2023-04-07T09:13:56;94532.16;;;11.99;31.93
6136;BME280;24008;42.664;23.372;2023-04-07T09:16:23;94523.50;;;12.42;32.29
6136;BME280;24008;42.664;23.372;2023-04-07T09:18:51;94539.84;;;12.41;31.45
6136;BME280;24008;42.664;23.372;2023-04-07T09:21:18;94400.63;;;11.74;31.18
6136;BME280;24008;42.664;23.372;2023-04-07T09:23:46;94526.16;;;13.15;32.55
6136;BME280;24008;42.664;23.372;2023-04-07T09:26:22;94529.97;;;13.11;31.76
6136;BME280;24008;42.664;23.372;2023-04-07T09:28:52;94457.84;;;11.90;30.02
6136;BME280;24008;42.664;23.372;2023-04-07T09:31:20;94500.31;;;12.01;31.33
6136;BME280;24008;42.664;23.372;2023-04-07T09:33:47;94403.81;;;11.00;32.31
6136;BME280;24008;42.664;23.372;2023-04-07T09:36:14;94529.72;;;11.37;33.66
6136;BME280;24008;42.664;23.372;2023-04-07T09:38:43;94526.69;;;11.34;33.79
6136;BME280;24008;42.664;23.372;2023-04-07T09:41:12;94528.88;;;11.54;34.49
6136;BME280;24008;42.664;23.372;2023-04-07T09:43:40;94503.00;;;11.92;34.61
6136;BME280;24008;42.664;23.372;2023-04-07T09:46:12;94527.97;;;12.40;33.02
6136;BME280;24008;42.664;23.372;2023-04-07T09:48:40;94509.13;;;12.65;31.90
6136;BME280;24008;42.664;23.372;2023-04-07T09:51:09;94452.19;;;12.45;31.13
6136;BME280;24008;42.664;23.372;2023-04-07T09:53:44;94526.28;;;13.05;30.33
6136;BME280;24008;42.664;23.372;2023-04-07T09:56:12;94539.38;;;12.61;31.69
6136;BME280;24008;42.664;23.372;2023-04-07T09:58:40;94375.81;;;11.24;32.37
6136;BME280;24008;42.664;23.372;2023-04-07T10:01:10;94545.09;;;11.97;32.47
6136;BME280;24008;42.664;23.372;2023-04-07T10:03:38;94540.47;;;11.67;32.89
6136;BME280;24008;42.664;23.372;2023-04-07T10:06:06;94545.44;;;11.94;33.29
6136;BME280;24008;42.664;23.372;2023-04-07T10:08:35;94549.25;;;12.32;32.69
6136;BME280;24008;42.664;23.372;2023-04-07T10:11:03;94547.19;;;12.44;32.85
6136;BME280;24008;42.664;23.372;2023-04-07T10:13:32;94538.94;;;12.74;31.62
6136;BME280;24008;42.664;23.372;2023-04-07T10:16:01;94523.06;;;12.87;31.87
6136;BME280;24008;42.664;23.372;2023-04-07T10:18:31;94496.88;;;12.26;32.26
6136;BME280;24008;42.664;23.372;2023-04-07T10:21:00;94449.22;;;11.58;33.08
6136;BME280;24008;42.664;23.372;2023-04-07T10:23:45;94537.84;;;12.18;33.24
6136;BME280;24008;42.664;23.372;2023-04-07T10:26:15;94537.03;;;11.84;34.39
6136;BME280;24008;42.664;23.372;2023-04-07T10:28:45;94471.78;;;11.28;32.58
6136;BME280;24008;42.664;23.372;2023-04-07T10:31:15;94428.03;;;10.88;34.53
6136;BME280;24008;42.664;23.372;2023-04-07T10:33:48;94484.56;;;10.59;34.86
6136;BME280;24008;42.664;23.372;2023-04-07T10:36:16;94522.44;;;10.63;35.38
6136;BME280;24008;42.664;23.372;2023-04-07T10:41:43;94488.03;;;10.40;35.27
6136;BME280;24008;42.664;23.372;2023-04-07T10:44:44;94536.91;;;10.72;35.12
6136;BME280;24008;42.664;23.372;2023-04-07T10:47:12;94564.53;;;10.87;36.05
6136;BME280;24008;42.664;23.372;2023-04-07T10:50:16;94388.50;;;9.67;36.76
6136;BME280;24008;42.664;23.372;2023-04-07T10:52:44;94536.59;;;10.13;38.41
6136;BME280;24008;42.664;23.372;2023-04-07T10:55:28;94548.31;;;9.68;39.91
6136;BME280;24008;42.664;23.372;2023-04-07T10:58:15;94558.88;;;9.83;39.27
6136;BME280;24008;42.664;23.372;2023-04-07T11:03:59;94558.13;;;9.73;39.01
6136;BME280;24008;42.664;23.372;2023-04-07T11:06:27;94563.75;;;9.77;39.59
6136;BME280;24008;42.664;23.372;2023-04-07T11:08:54;94558.78;;;10.02;38.60
6136;BME280;24008;42.664;23.372;2023-04-07T11:11:38;94557.53;;;10.16;40.05
6136;BME280;24008;42.664;23.372;2023-04-07T11:14:06;94501.25;;;10.08;38.38
6136;BME280;24008;42.664;23.372;2023-04-07T11:16:40;94546.75;;;10.50;38.45
6136;BME280;24008;42.664;23.372;2023-04-07T11:19:08;94392.38;;;9.54;37.89
6136;BME280;24008;42.664;23.372;2023-04-07T11:21:36;94558.97;;;10.73;37.30
6136;BME280;24008;42.664;23.372;2023-04-07T11:24:03;94530.16;;;10.36;37.93
6136;BME280;24008;42.664;23.372;2023-04-07T11:26:36;94570.19;;;10.80;38.08
6136;BME280;24008;42.664;23.372;2023-04-07T11:29:03;94576.19;;;10.71;38.76
6136;BME280;24008;42.664;23.372;2023-04-07T11:31:30;94569.75;;;10.67;38.82
6136;BME280;24008;42.664;23.372;2023-04-07T11:33:58;94474.28;;;9.78;38.17
6136;BME280;24008;42.664;23.372;2023-04-07T11:36:27;94371.19;;;9.16;38.29
6136;BME280;24008;42.664;23.372;2023-04-07T11:38:57;94566.69;;;10.46;39.04
6136;BME280;24008;42.664;23.372;2023-04-07T11:41:25;94511.03;;;10.40;38.66
6136;BME280;24008;42.664;23.372;2023-04-07T11:44:09;94509.72;;;10.36;37.38
6136;BME280;24008;42.664;23.372;2023-04-07T11:46:51;94565.88;;;10.63;37.84
6136;BME280;24008;42.664;23.372;2023-04-07T11:49:18;94576.31;;;10.52;39.67
6136;BME280;24008;42.664;23.372;2023-04-07T11:52:05;94539.22;;;10.48;39.91
6136;BME280;24008;42.664;23.372;2023-04-07T11:54:41;94570.78;;;10.57;39.07
6136;BME280;24008;42.664;23.372;2023-04-07T11:57:08;94567.88;;;10.69;38.88
6136;BME280;24008;42.664;23.372;2023-04-07T11:59:37;94471.91;;;10.22;38.88
6136;BME280;24008;42.664;23.372;2023-04-07T12:02:04;94573.63;;;10.89;38.34
6136;BME280;24008;42.664;23.372;2023-04-07T12:04:31;94559.47;;;10.77;38.44
6136;BME280;24008;42.664;23.372;2023-04-07T12:07:06;94565.59;;;10.66;39.43
6136;BME280;24008;42.664;23.372;2023-04-07T12:09:34;94437.22;;;10.01;38.86
6136;BME280;24008;42.664;23.372;2023-04-07T12:12:04;94524.25;;;10.53;39.02
6136;BME280;24008;42.664;23.372;2023-04-07T12:14:32;94421.78;;;9.93;39.92
6136;BME280;24008;42.664;23.372;2023-04-07T12:16:59;94561.81;;;10.70;40.28
6136;BME280;24008;42.664;23.372;2023-04-07T12:19:28;94327.34;;;9.30;39.33
6136;BME280;24008;42.664;23.372;2023-04-07T12:21:57;94561.88;;;10.78;38.52
6136;BME280;24008;42.664;23.372;2023-04-07T12:24:23;94487.09;;;10.41;39.34
6136;BME280;24008;42.664;23.372;2023-04-07T12:26:50;94560.94;;;10.79;39.39
6136;BME280;24008;42.664;23.372;2023-04-07T12:29:18;94560.56;;;10.74;40.13
6136;BME280;24008;42.664;23.372;2023-04-07T12:31:45;94534.41;;;10.45;40.13
6136;BME280;24008;42.664;23.372;2023-04-07T12:34:12;94397.09;;;9.66;40.32
6136;BME280;24008;42.664;23.372;2023-04-07T12:36:39;94559.53;;;10.67;40.13
6136;BME280;24008;42.664;23.372;2023-04-07T12:39:06;94553.91;;;10.64;39.41
6136;BME280;24008;42.664;23.372;2023-04-07T12:41:32;94346.88;;;9.22;39.85
6136;BME280;24008;42.664;23.372;2023-04-07T12:43:59;94435.63;;;9.73;39.68
6136;BME280;24008;42.664;23.372;2023-04-07T12:46:27;94567.06;;;10.24;40.18
6136;BME280;24008;42.664;23.372;2023-04-07T12:48:54;94562.31;;;10.01;39.94
6136;BME280;24008;42.664;23.372;2023-04-07T12:51:21;94567.09;;;10.14;41.42
6136;BME280;24008;42.664;23.372;2023-04-07T12:53:48;94558.34;;;10.44;40.91
6136;BME280;24008;42.664;23.372;2023-04-07T12:56:14;94563.19;;;10.47;40.44
6136;BME280;24008;42.664;23.372;2023-04-07T12:58:41;94564.41;;;10.43;40.86
6136;BME280;24008;42.664;23.372;2023-04-07T13:01:08;94527.28;;;10.21;39.93
6136;BME280;24008;42.664;23.372;2023-04-07T13:03:36;94513.00;;;9.73;40.24
6136;BME280;24008;42.664;23.372;2023-04-07T13:06:03;94408.00;;;9.04;41.26
6136;BME280;24008;42.664;23.372;2023-04-07T13:08:30;94471.56;;;9.15;41.46
6136;BME280;24008;42.664;23.372;2023-04-07T13:11:01;94357.75;;;8.87;40.98
6136;BME280;24008;42.664;23.372;2023-04-07T13:13:30;94621.00;;;10.21;41.08
6136;BME280;24008;42.664;23.372;2023-04-07T13:15:57;94563.91;;;10.02;40.48
6136;BME280;24008;42.664;23.372;2023-04-07T13:18:24;94582.69;;;9.74;41.17